createdAt,value
2019-03-08T00:01:34.117Z,0.60
2019-03-08T00:04:04.102Z,0.93
2019-03-08T00:06:34.000Z,0.70
2019-03-08T00:09:05.221Z,0.90
2019-03-08T00:11:35.057Z,0.70
2019-03-08T00:14:04.860Z,0.60
2019-03-08T00:16:34.476Z,0.90
2019-03-08T00:19:04.803Z,1.00
2019-03-08T00:21:40.766Z,1.00
2019-03-08T00:24:10.664Z,0.70
2019-03-08T00:26:40.284Z,0.80
2019-03-08T00:29:10.108Z,0.57
2019-03-08T00:31:39.840Z,1.57
2019-03-08T00:34:09.711Z,0.60
2019-03-08T00:36:39.426Z,0.80
2019-03-08T00:39:09.332Z,0.70
2019-03-08T00:41:38.909Z,0.90
2019-03-08T00:44:08.744Z,0.80
2019-03-08T00:46:38.336Z,1.10
2019-03-08T00:49:08.198Z,0.80
2019-03-08T00:51:38.066Z,0.63
2019-03-08T00:54:07.901Z,0.97
2019-03-08T00:56:39.635Z,0.97
2019-03-08T00:59:09.044Z,1.03
2019-03-08T01:01:38.756Z,0.80
2019-03-08T01:04:08.696Z,0.90
2019-03-08T01:06:38.583Z,0.80
2019-03-08T01:09:09.528Z,1.10
2019-03-08T01:11:39.639Z,1.07
2019-03-08T01:14:09.224Z,0.80
2019-03-08T01:16:38.856Z,0.90
2019-03-08T01:19:08.474Z,1.10
2019-03-08T01:21:38.269Z,0.67
2019-03-08T01:24:08.188Z,0.80
2019-03-08T01:26:37.716Z,0.90
2019-03-08T01:29:07.276Z,0.67
2019-03-08T01:31:36.816Z,0.90
2019-03-08T01:34:06.658Z,1.63
2019-03-08T01:36:36.299Z,0.57
2019-03-08T01:39:07.289Z,0.93
2019-03-08T01:41:37.165Z,0.80
2019-03-08T01:44:07.204Z,0.73
2019-03-08T01:46:37.092Z,1.20
2019-03-08T01:49:08.405Z,1.00
2019-03-08T01:51:38.462Z,1.07
2019-03-08T01:54:07.993Z,1.13
2019-03-08T01:56:37.608Z,0.97
2019-03-08T01:59:07.484Z,1.07
2019-03-08T02:01:37.292Z,1.00
2019-03-08T02:04:06.907Z,0.70
2019-03-08T02:06:36.541Z,1.83
2019-03-08T02:09:07.056Z,1.43
2019-03-08T02:11:36.606Z,0.97
2019-03-08T02:14:06.207Z,1.30
2019-03-08T02:16:35.816Z,1.00
2019-03-08T02:19:05.432Z,1.10
2019-03-08T02:22:03.246Z,1.17
2019-03-08T02:24:32.851Z,0.80
2019-03-08T02:27:02.680Z,1.00
2019-03-08T02:29:32.224Z,1.20
2019-03-08T02:32:01.757Z,1.10
2019-03-08T02:34:31.312Z,1.17
2019-03-08T02:37:00.852Z,1.20
2019-03-08T02:39:30.380Z,1.00
2019-03-08T02:41:59.941Z,1.33
2019-03-08T02:44:29.782Z,1.17
2019-03-08T02:46:59.325Z,0.97
2019-03-08T02:49:29.709Z,1.20
2019-03-08T02:52:11.461Z,1.20
2019-03-08T02:54:41.206Z,0.70
2019-03-08T02:57:10.927Z,1.10
2019-03-08T02:59:40.476Z,0.60
2019-03-08T03:02:10.042Z,0.70
2019-03-08T03:04:39.861Z,0.80
2019-03-08T03:07:09.648Z,0.60
2019-03-08T03:09:39.208Z,0.77
2019-03-08T03:12:09.068Z,0.70
2019-03-08T03:14:38.628Z,0.70
2019-03-08T03:17:15.137Z,0.83
2019-03-08T03:19:44.746Z,0.83
2019-03-08T03:22:25.184Z,0.80
2019-03-08T03:24:55.020Z,0.80
2019-03-08T03:27:24.828Z,0.60
2019-03-08T03:29:54.368Z,0.60
2019-03-08T03:32:24.308Z,0.63
2019-03-08T03:34:54.163Z,0.90
2019-03-08T03:37:23.699Z,0.80
2019-03-08T03:39:53.344Z,0.97
2019-03-08T03:42:23.163Z,0.50
2019-03-08T03:44:52.695Z,0.50
2019-03-08T03:47:22.376Z,0.97
2019-03-08T03:49:51.916Z,0.93
2019-03-08T03:52:21.492Z,0.47
2019-03-08T03:54:51.316Z,0.77
2019-03-08T03:57:21.128Z,1.10
2019-03-08T03:59:50.947Z,0.90
2019-03-08T04:02:22.133Z,0.63
2019-03-08T04:04:51.933Z,0.60
2019-03-08T04:07:21.464Z,0.70
2019-03-08T04:09:51.209Z,0.70
2019-03-08T04:12:21.124Z,0.50
2019-03-08T04:14:50.681Z,0.50
2019-03-08T04:17:20.520Z,0.77
2019-03-08T04:19:50.464Z,1.00
2019-03-08T04:22:20.576Z,0.43
2019-03-08T04:24:50.188Z,0.77
2019-03-08T04:27:19.720Z,0.70
2019-03-08T04:29:49.683Z,0.37
2019-03-08T04:32:19.621Z,0.60
2019-03-08T04:34:49.164Z,0.47
2019-03-08T04:37:19.037Z,0.77
2019-03-08T04:39:48.883Z,0.97
2019-03-08T04:42:18.860Z,0.70
2019-03-08T04:44:48.664Z,0.60
2019-03-08T04:47:18.480Z,0.90
2019-03-08T04:49:48.605Z,0.83
2019-03-08T04:52:18.139Z,0.83
2019-03-08T04:54:47.696Z,0.73
2019-03-08T04:57:17.317Z,0.80
2019-03-08T04:59:49.050Z,0.77
2019-03-08T05:02:19.080Z,0.87
2019-03-08T05:04:48.693Z,0.57
2019-03-08T05:07:18.237Z,0.80
2019-03-08T05:09:47.788Z,0.70
2019-03-08T05:12:18.016Z,0.90
2019-03-08T05:14:47.561Z,0.67
2019-03-08T05:17:17.408Z,0.60
2019-03-08T05:19:46.952Z,0.80
2019-03-08T05:22:16.748Z,1.10
2019-03-08T05:24:46.301Z,0.73
2019-03-08T05:27:15.868Z,1.03
2019-03-08T05:29:45.673Z,0.50
2019-03-08T05:32:15.593Z,0.90
2019-03-08T05:34:45.485Z,0.97
2019-03-08T05:37:15.036Z,0.67
2019-03-08T05:39:44.589Z,0.73
2019-03-08T05:42:14.128Z,0.83
2019-03-08T05:44:44.236Z,0.70
2019-03-08T05:47:14.152Z,0.80
2019-03-08T05:49:43.964Z,0.80
2019-03-08T05:52:13.773Z,1.20
2019-03-08T05:54:43.580Z,1.53
2019-03-08T05:57:13.393Z,1.70
2019-03-08T05:59:42.928Z,1.30
2019-03-08T06:02:12.493Z,0.77
2019-03-08T06:04:42.033Z,2.73
2019-03-08T06:07:11.581Z,2.57
2019-03-08T06:09:41.149Z,1.43
2019-03-08T06:12:11.137Z,1.23
2019-03-08T06:14:40.680Z,1.10
2019-03-08T06:17:10.545Z,2.03
2019-03-08T06:19:40.100Z,1.40
2019-03-08T06:22:09.639Z,1.83
2019-03-08T06:24:39.196Z,0.70
2019-03-08T06:27:08.944Z,1.30
2019-03-08T06:29:39.093Z,2.10
2019-03-08T06:32:08.636Z,1.20
2019-03-08T06:34:38.182Z,1.07
2019-03-08T06:37:08.116Z,0.80
2019-03-08T06:39:37.676Z,1.50
2019-03-08T06:42:07.211Z,0.90
2019-03-08T06:44:37.037Z,1.13
2019-03-08T06:47:06.680Z,1.03
2019-03-08T06:49:36.504Z,0.97
2019-03-08T06:52:06.369Z,1.80
2019-03-08T06:54:36.192Z,1.23
2019-03-08T06:57:05.732Z,0.83
2019-03-08T06:59:49.203Z,2.20
2019-03-08T07:02:39.896Z,1.50
2019-03-08T07:05:10.280Z,1.20
2019-03-08T07:07:39.816Z,1.27
2019-03-08T07:10:09.515Z,2.20
2019-03-08T07:12:39.781Z,1.93
2019-03-08T07:15:09.545Z,1.00
2019-03-08T07:17:39.425Z,1.50
2019-03-08T07:20:40.811Z,1.47
2019-03-08T07:23:27.681Z,1.27
2019-03-08T07:26:18.049Z,1.10
2019-03-08T07:29:07.008Z,1.23
2019-03-08T07:31:58.165Z,1.93
2019-03-08T07:35:32.620Z,1.30
2019-03-08T07:38:21.344Z,1.50
2019-03-08T07:41:00.339Z,1.30
2019-03-08T07:43:52.056Z,1.30
2019-03-08T07:46:37.702Z,1.70
2019-03-08T07:49:17.477Z,1.30
2019-03-08T07:52:37.877Z,1.20
2019-03-08T07:55:30.321Z,1.30
2019-03-08T07:58:09.860Z,1.20
2019-03-08T08:01:04.752Z,1.57
2019-03-08T08:03:55.869Z,1.37
2019-03-08T08:06:43.697Z,1.17
2019-03-08T08:09:28.363Z,1.37
2019-03-08T08:12:26.513Z,1.27
2019-03-08T08:15:15.134Z,1.47
2019-03-08T08:18:03.769Z,1.60
2019-03-08T08:20:58.944Z,1.47
2019-03-08T08:24:02.654Z,1.70
2019-03-08T08:26:53.759Z,2.37
2019-03-08T08:29:44.036Z,1.83
2019-03-08T08:32:36.493Z,1.90
2019-03-08T08:35:22.381Z,1.40
2019-03-08T08:38:11.341Z,1.60
2019-03-08T08:40:57.844Z,1.77
2019-03-08T08:43:37.963Z,1.87
2019-03-08T08:46:17.329Z,1.43
2019-03-08T08:49:05.636Z,1.50
2019-03-08T08:52:13.464Z,1.67
2019-03-08T08:55:06.117Z,2.20
2019-03-08T08:58:09.853Z,2.00
2019-03-08T09:00:46.055Z,1.90
2019-03-08T09:03:47.129Z,2.20
2019-03-08T09:06:44.892Z,1.70
2019-03-08T09:09:32.192Z,1.70
2019-03-08T09:12:16.337Z,1.80
2019-03-08T09:15:03.360Z,2.27
2019-03-08T09:18:05.244Z,2.20
2019-03-08T09:20:55.633Z,1.93
2019-03-08T09:24:27.200Z,1.67
2019-03-08T09:27:05.065Z,2.13
2019-03-08T09:29:43.518Z,2.33
2019-03-08T09:32:32.168Z,1.60
2019-03-08T09:35:15.972Z,2.03
2019-03-08T09:37:57.176Z,2.03
2019-03-08T09:40:51.144Z,2.23
2019-03-08T09:43:32.641Z,0.97
2019-03-08T09:46:15.621Z,1.10
2019-03-08T09:49:05.404Z,0.57
2019-03-08T09:51:57.165Z,0.70
2019-03-08T09:54:57.969Z,0.57
2019-03-08T09:57:46.690Z,0.37
2019-03-08T10:00:59.239Z,0.40
2019-03-08T10:03:54.578Z,0.30
2019-03-08T10:06:55.414Z,0.60
2019-03-08T10:09:43.660Z,0.30
2019-03-08T10:12:22.480Z,0.53
2019-03-08T10:15:18.480Z,0.27
2019-03-08T10:18:07.457Z,0.30
2019-03-08T10:20:42.469Z,0.10
2019-03-08T10:23:33.613Z,0.30
2019-03-08T10:26:25.645Z,0.17
2019-03-08T10:29:14.356Z,0.20
2019-03-08T10:32:18.460Z,0.30
2019-03-08T10:35:23.785Z,0.40
2019-03-08T10:38:08.885Z,0.40
2019-03-08T10:40:53.277Z,0.20
2019-03-08T10:43:27.503Z,0.30
2019-03-08T10:46:15.893Z,0.27
2019-03-08T10:49:03.648Z,0.40
2019-03-08T10:51:55.266Z,0.40
2019-03-08T10:54:30.751Z,0.30
2019-03-08T10:57:12.213Z,0.40
2019-03-08T11:00:07.733Z,0.50
2019-03-08T11:03:11.704Z,0.50
2019-03-08T11:06:06.749Z,0.87
2019-03-08T11:08:42.904Z,0.83
2019-03-08T11:11:38.859Z,0.73
2019-03-08T11:14:20.625Z,0.60
2019-03-08T11:16:57.568Z,1.00
2019-03-08T11:19:38.887Z,1.00
2019-03-08T11:22:31.804Z,1.10
2019-03-08T11:25:12.092Z,1.20
2019-03-08T11:27:52.144Z,1.20
2019-03-08T11:30:39.032Z,1.20
2019-03-08T11:33:26.987Z,1.27
2019-03-08T11:36:01.593Z,1.40
2019-03-08T11:38:49.203Z,1.10
2019-03-08T11:41:28.972Z,1.43
2019-03-08T11:44:15.685Z,1.53
2019-03-08T11:47:13.964Z,1.50
2019-03-08T11:50:00.514Z,1.87
2019-03-08T11:52:43.589Z,1.90
2019-03-08T11:55:31.951Z,2.40
2019-03-08T11:58:16.667Z,2.07
2019-03-08T12:01:14.149Z,2.23
2019-03-08T12:04:09.409Z,2.10
2019-03-08T12:06:48.492Z,2.97
2019-03-08T12:09:30.685Z,2.10
2019-03-08T12:12:22.715Z,3.20
2019-03-08T12:14:59.304Z,2.77
2019-03-08T12:17:51.857Z,2.80
2019-03-08T12:20:46.952Z,2.63
2019-03-08T12:23:24.132Z,3.10
2019-03-08T12:26:21.552Z,3.30
2019-03-08T12:29:08.567Z,2.93
2019-03-08T12:31:44.046Z,3.50
2019-03-08T12:34:35.643Z,3.27
2019-03-08T12:37:21.162Z,3.20
2019-03-08T12:40:15.098Z,3.10
2019-03-08T12:43:09.946Z,2.50
2019-03-08T12:45:57.578Z,2.43
2019-03-08T12:49:05.654Z,2.17
2019-03-08T12:51:56.436Z,1.83
2019-03-08T12:54:43.643Z,1.63
2019-03-08T12:57:44.417Z,1.47
2019-03-08T13:00:31.301Z,1.63
2019-03-08T13:03:19.261Z,1.50
2019-03-08T13:06:10.996Z,1.50
2019-03-08T13:08:45.593Z,3.20
2019-03-08T13:11:15.200Z,3.33
2019-03-08T13:13:56.093Z,2.77
2019-03-08T13:16:25.901Z,2.17
2019-03-08T13:18:55.817Z,2.40
2019-03-08T13:21:25.629Z,2.27
2019-03-08T13:23:55.172Z,2.00
2019-03-08T13:26:25.249Z,1.37
2019-03-08T13:28:55.058Z,1.90
2019-03-08T13:31:24.600Z,2.27
2019-03-08T13:33:54.200Z,2.00
2019-03-08T13:36:32.683Z,2.00
2019-03-08T13:39:02.905Z,1.60
2019-03-08T13:41:32.784Z,1.60
2019-03-08T13:44:02.333Z,1.90
2019-03-08T13:46:32.228Z,2.07
2019-03-08T13:49:02.044Z,1.80
2019-03-08T13:51:31.852Z,1.80
2019-03-08T13:54:01.764Z,2.03
2019-03-08T13:56:31.306Z,2.00
2019-03-08T13:59:00.847Z,1.90
2019-03-08T14:01:30.615Z,1.60
2019-03-08T14:04:00.471Z,1.90
2019-03-08T14:06:30.414Z,2.10
2019-03-08T14:08:59.944Z,2.03
2019-03-08T14:11:29.492Z,2.17
2019-03-08T14:13:59.105Z,1.97
2019-03-08T14:16:29.092Z,2.07
2019-03-08T14:18:58.956Z,2.00
2019-03-08T14:21:28.774Z,2.10
2019-03-08T14:23:58.349Z,1.83
2019-03-08T14:26:28.249Z,1.53
2019-03-08T14:28:57.787Z,2.23
2019-03-08T14:31:49.192Z,1.50
2019-03-08T14:34:17.093Z,1.47
2019-03-08T14:36:47.704Z,1.57
2019-03-08T14:39:17.358Z,0.90
2019-03-08T14:42:03.860Z,0.90
2019-03-08T14:44:46.113Z,0.83
2019-03-08T14:47:20.225Z,0.93
2019-03-08T14:49:49.945Z,0.77
2019-03-08T14:52:21.537Z,1.10
2019-03-08T14:54:51.605Z,0.70
2019-03-08T14:57:27.051Z,0.83
2019-03-08T14:59:53.133Z,0.73
2019-03-08T15:02:23.637Z,0.90
2019-03-08T15:04:53.180Z,0.90
2019-03-08T15:07:22.725Z,1.10
2019-03-08T15:09:52.599Z,0.70
2019-03-08T15:12:22.137Z,0.90
2019-03-08T15:14:51.954Z,0.90
2019-03-08T15:17:21.952Z,0.80
2019-03-08T15:19:52.182Z,0.60
2019-03-08T15:22:21.745Z,0.80
2019-03-08T15:24:56.929Z,0.70
2019-03-08T15:27:26.460Z,0.80
2019-03-08T15:29:56.332Z,1.10
2019-03-08T15:32:29.542Z,0.93
2019-03-08T15:34:59.763Z,0.97
2019-03-08T15:37:29.300Z,0.80
2019-03-08T15:39:59.232Z,0.90
2019-03-08T15:42:29.661Z,0.60
2019-03-08T15:45:01.794Z,1.10
2019-03-08T15:47:32.552Z,0.80
2019-03-08T15:50:04.619Z,0.97
2019-03-08T15:52:33.753Z,0.83
2019-03-08T15:55:04.172Z,0.90
2019-03-08T15:57:35.711Z,1.17
2019-03-08T16:00:08.535Z,1.00
2019-03-08T16:02:38.720Z,0.83
2019-03-08T16:05:09.189Z,0.90
2019-03-08T16:08:06.192Z,0.80
2019-03-08T16:10:36.424Z,0.87
2019-03-08T16:13:06.256Z,1.00
2019-03-08T16:15:36.101Z,0.97
2019-03-08T16:18:06.112Z,1.10
2019-03-08T16:20:37.241Z,2.00
2019-03-08T16:23:08.455Z,3.27
2019-03-08T16:25:41.137Z,3.07
2019-03-08T16:28:10.848Z,4.10
2019-03-08T16:30:43.953Z,4.50
2019-03-08T16:33:21.013Z,6.80
2019-03-08T16:35:57.853Z,4.77
2019-03-08T16:38:36.140Z,4.77
2019-03-08T16:41:24.024Z,4.27
2019-03-08T16:44:04.249Z,4.33
2019-03-08T16:46:46.229Z,4.43
2019-03-08T16:49:34.040Z,4.57
2019-03-08T16:52:13.203Z,4.77
2019-03-08T16:55:01.708Z,4.97
2019-03-08T16:58:26.996Z,7.00
2019-03-08T17:01:05.496Z,2.93
2019-03-08T17:03:55.564Z,4.13
2019-03-08T17:06:44.868Z,4.30
2019-03-08T17:09:30.340Z,4.70
2019-03-08T17:12:27.965Z,6.43
2019-03-08T17:15:35.527Z,5.03
2019-03-08T17:18:23.213Z,3.93
2019-03-08T17:21:10.643Z,3.10
2019-03-08T17:24:02.304Z,2.77
2019-03-08T17:26:38.100Z,3.97
2019-03-08T17:29:15.913Z,3.30
2019-03-08T17:31:50.624Z,3.47
2019-03-08T17:34:37.668Z,2.00
2019-03-08T17:37:13.900Z,1.20
2019-03-08T17:39:49.182Z,1.00
2019-03-08T17:42:37.813Z,1.00
2019-03-08T17:45:35.268Z,1.13
2019-03-08T17:48:23.317Z,1.33
2019-03-08T17:50:59.863Z,0.80
2019-03-08T17:53:56.941Z,1.13
2019-03-08T17:56:55.112Z,1.40
2019-03-08T17:59:30.860Z,1.33
2019-03-08T18:02:22.725Z,1.50
2019-03-08T18:05:02.740Z,1.60
2019-03-08T18:08:09.608Z,1.30
2019-03-08T18:11:03.910Z,1.37
2019-03-08T18:14:02.858Z,1.23
2019-03-08T18:16:59.356Z,1.30
2019-03-08T18:19:52.890Z,1.53
2019-03-08T18:22:46.288Z,1.97
2019-03-08T18:25:31.249Z,2.50
2019-03-08T18:28:19.683Z,3.70
2019-03-08T18:31:07.052Z,2.40
2019-03-08T18:33:42.789Z,2.10
2019-03-08T18:36:24.624Z,1.97
2019-03-08T18:39:07.095Z,2.37
2019-03-08T18:41:49.762Z,2.03
2019-03-08T18:44:45.427Z,2.30
2019-03-08T18:47:46.539Z,2.53
2019-03-08T18:50:44.306Z,1.32
2019-03-08T18:53:35.875Z,1.23
2019-03-08T18:56:23.441Z,1.30
2019-03-08T18:59:05.925Z,1.51
2019-03-08T19:01:53.343Z,1.77
2019-03-08T19:04:41.417Z,1.90
2019-03-08T19:07:30.766Z,1.60
2019-03-08T19:10:20.360Z,1.47
2019-03-08T19:13:24.881Z,1.77
2019-03-08T19:16:05.636Z,2.47
2019-03-08T19:18:46.726Z,5.93
2019-03-08T19:21:29.736Z,2.10
2019-03-08T19:24:04.649Z,2.13
2019-03-08T19:26:53.449Z,1.37
2019-03-08T19:29:45.753Z,1.70
2019-03-08T19:32:33.506Z,1.60
2019-03-08T19:35:13.457Z,1.50
2019-03-08T19:38:08.388Z,1.70
2019-03-08T19:40:53.193Z,2.00
2019-03-08T19:43:28.748Z,1.82
2019-03-08T19:46:19.126Z,1.60
2019-03-08T19:49:06.344Z,1.33
2019-03-08T19:51:56.299Z,1.57
2019-03-08T19:54:45.232Z,1.57
2019-03-08T19:57:49.738Z,1.50
2019-03-08T20:00:44.937Z,1.40
2019-03-08T20:03:22.101Z,1.53
2019-03-08T20:06:00.746Z,1.90
2019-03-08T20:08:47.779Z,1.50
2019-03-08T20:11:29.740Z,1.73
2019-03-08T20:14:17.494Z,2.93
2019-03-08T20:16:56.620Z,3.50
2019-03-08T20:19:44.304Z,2.33
2019-03-08T20:22:42.430Z,5.10
2019-03-08T20:25:31.397Z,3.93
2019-03-08T20:28:20.056Z,2.43
2019-03-08T20:31:02.636Z,2.33
2019-03-08T20:34:06.695Z,2.10
2019-03-08T20:37:01.477Z,1.90
2019-03-08T20:39:50.107Z,1.70
2019-03-08T20:42:38.149Z,1.60
2019-03-08T20:45:16.664Z,2.30
2019-03-08T20:47:46.684Z,2.13
2019-03-08T20:50:20.447Z,1.30
2019-03-08T20:52:50.064Z,1.53
2019-03-08T20:55:19.648Z,2.40
2019-03-08T20:57:49.601Z,2.00
2019-03-08T21:00:19.796Z,2.07
2019-03-08T21:02:49.741Z,1.83
2019-03-08T21:05:19.678Z,2.00
2019-03-08T21:07:50.009Z,2.33
2019-03-08T21:10:19.914Z,2.13
2019-03-08T21:12:49.657Z,1.63
2019-03-08T21:15:25.434Z,1.73
2019-03-08T21:17:50.533Z,1.53
2019-03-08T21:20:20.168Z,2.60
2019-03-08T21:23:05.445Z,2.37
2019-03-08T21:25:35.827Z,1.60
2019-03-08T21:28:05.965Z,1.83
2019-03-08T21:30:35.592Z,2.00
2019-03-08T21:33:05.632Z,1.60
2019-03-08T21:35:35.168Z,2.53
2019-03-08T21:38:04.803Z,2.10
2019-03-08T21:40:35.644Z,2.17
2019-03-08T21:43:05.419Z,1.67
2019-03-08T21:45:35.011Z,2.20
2019-03-08T21:48:05.007Z,5.40
2019-03-08T21:50:44.021Z,3.63
2019-03-08T21:53:13.919Z,2.40
2019-03-08T21:55:44.366Z,2.20
2019-03-08T21:58:13.930Z,2.27
2019-03-08T22:00:43.765Z,1.80
2019-03-08T22:03:13.560Z,1.80
2019-03-08T22:05:43.138Z,1.40
2019-03-08T22:08:17.296Z,1.40
2019-03-08T22:10:50.580Z,1.60
2019-03-08T22:13:20.153Z,2.37
2019-03-08T22:15:50.023Z,1.70
2019-03-08T22:18:19.576Z,1.70
2019-03-08T22:20:49.716Z,1.27
2019-03-08T22:23:19.348Z,1.83
2019-03-08T22:25:48.904Z,2.80
2019-03-08T22:28:18.483Z,2.63
2019-03-08T22:30:51.621Z,2.30
2019-03-08T22:33:21.478Z,1.63
2019-03-08T22:35:51.354Z,2.13
2019-03-08T22:38:20.920Z,1.83
2019-03-08T22:40:50.481Z,1.97
2019-03-08T22:43:20.268Z,2.60
2019-03-08T22:45:50.392Z,1.60
2019-03-08T22:48:20.301Z,1.90
2019-03-08T22:50:49.888Z,1.10
2019-03-08T22:53:19.453Z,2.03
2019-03-08T22:55:49.334Z,1.83
2019-03-08T22:58:19.332Z,2.00
2019-03-08T23:01:08.865Z,1.60
2019-03-08T23:03:38.588Z,1.90
2019-03-08T23:06:08.544Z,1.83
2019-03-08T23:08:38.453Z,1.87
2019-03-08T23:11:08.076Z,2.50
2019-03-08T23:13:37.902Z,2.10
2019-03-08T23:16:07.468Z,2.47
2019-03-08T23:18:37.093Z,1.80
2019-03-08T23:21:06.709Z,2.40
2019-03-08T23:23:36.288Z,1.50
2019-03-08T23:26:05.905Z,1.63
2019-03-08T23:28:48.260Z,1.70
2019-03-08T23:31:39.492Z,2.27
2019-03-08T23:34:09.901Z,1.83
2019-03-08T23:36:39.860Z,1.47
2019-03-08T23:39:09.488Z,2.07
2019-03-08T23:41:41.868Z,1.97
2019-03-08T23:44:11.488Z,2.23
2019-03-08T23:46:41.852Z,1.37
2019-03-08T23:49:11.389Z,1.97
2019-03-08T23:51:40.955Z,1.50
2019-03-08T23:54:10.789Z,1.90
2019-03-08T23:56:40.704Z,2.10
2019-03-08T23:59:10.260Z,1.50
